Time;durP1;ratioP1;P1;durP2;ratioP2;P2;SDS_P1;SDS_P2;PMS_P1;PMS_P2;Temp;Humidity;BMP_temperature;BMP_pressure;BME280_temperature;BME280_humidity;BME280_pressure;Samples;Min_cycle;Max_cycle;Signal;HPM_P1;HPM_P2
2021/09/13 00:02:28;;;;;;;47.25;33.28;;;17.10;97.90;;;;;;5064854;28;20390;-81
2021/09/13 00:04:54;;;;;;;40.17;28.85;;;17.10;97.90;;;;;;5037459;28;20032;-82
2021/09/13 00:07:20;;;;;;;30.90;25.13;;;17.10;97.90;;;;;;5055672;28;20033;-83
2021/09/13 00:09:45;;;;;;;38.30;29.88;;;17.10;97.90;;;;;;5059803;28;20108;-82
2021/09/13 00:12:11;;;;;;;40.05;29.23;;;17.10;97.90;;;;;;5061702;28;20025;-83
2021/09/13 00:14:37;;;;;;;41.13;30.35;;;17.10;97.80;;;;;;5069680;28;20031;-82
2021/09/13 00:17:03;;;;;;;40.30;30.40;;;17.10;97.80;;;;;;5037407;28;20025;-83
2021/09/13 00:19:29;;;;;;;35.15;27.67;;;17.10;97.90;;;;;;5074104;28;20032;-82
2021/09/13 00:21:55;;;;;;;37.25;27.98;;;17.00;98.00;;;;;;5074326;28;20385;-83
2021/09/13 00:24:21;;;;;;;36.58;28.90;;;17.00;98.10;;;;;;5074034;28;20044;-82
2021/09/13 00:26:47;;;;;;;35.58;26.83;;;17.00;98.10;;;;;;5073922;28;20048;-83
2021/09/13 00:29:13;;;;;;;36.33;27.77;;;16.90;98.20;;;;;;5056605;28;20101;-85
2021/09/13 00:31:39;;;;;;;29.88;25.73;;;16.90;98.30;;;;;;5074765;28;20531;-85
2021/09/13 00:34:05;;;;;;;40.70;27.80;;;16.90;98.30;;;;;;5077271;28;20027;-85
2021/09/13 00:36:31;;;;;;;32.28;27.23;;;16.90;98.30;;;;;;5076684;28;20039;-86
2021/09/13 00:38:56;;;;;;;37.97;27.42;;;17.00;98.30;;;;;;5072936;28;20017;-85
2021/09/13 00:41:22;;;;;;;33.33;27.17;;;17.00;98.30;;;;;;5074125;28;20025;-85
2021/09/13 00:43:49;;;;;;;26.38;22.73;;;17.00;98.30;;;;;;5074441;28;20096;-85
2021/09/13 00:46:15;;;;;;;26.30;23.42;;;17.00;98.20;;;;;;5075986;28;20052;-85
2021/09/13 00:48:41;;;;;;;34.55;24.38;;;17.10;98.00;;;;;;5061445;28;20064;-86
2021/09/13 00:51:07;;;;;;;27.10;22.63;;;17.10;97.90;;;;;;5074675;28;20012;-86
2021/09/13 00:53:33;;;;;;;29.80;23.85;;;17.10;97.80;;;;;;5073758;28;20029;-85
2021/09/13 00:55:59;;;;;;;28.67;23.50;;;17.10;97.70;;;;;;5084978;28;20017;-84
2021/09/13 00:58:27;;;;;;;26.77;23.88;;;17.10;97.70;;;;;;5075880;28;20039;-84
2021/09/13 01:00:54;;;;;;;31.90;23.42;;;17.10;97.70;;;;;;5073988;28;20012;-84
2021/09/13 01:03:20;;;;;;;24.40;20.35;;;17.10;97.70;;;;;;5074452;28;20110;-86
2021/09/13 01:05:48;;;;;;;25.75;20.67;;;17.00;97.60;;;;;;5073771;28;20062;-86
2021/09/13 01:08:13;;;;;;;;;;;17.10;97.60;;;;;;5074007;28;20032;-85
2021/09/13 01:10:42;;;;;;;28.92;21.83;;;17.00;97.30;;;;;;5073623;28;19926;-85
2021/09/13 01:13:08;;;;;;;27.55;20.00;;;17.00;97.50;;;;;;5060806;28;20076;-86
2021/09/13 01:15:41;;;;;;;24.55;20.90;;;17.00;97.50;;;;;;5073295;28;20397;-84
2021/09/13 01:18:07;;;;;;;27.33;20.50;;;17.00;97.50;;;;;;5073563;28;20049;-85
2021/09/13 01:20:34;;;;;;;23.03;18.67;;;17.00;97.40;;;;;;5070791;28;20424;-85
2021/09/13 01:23:06;;;;;;;21.50;19.20;;;17.00;97.30;;;;;;5072161;28;20303;-85
2021/09/13 01:25:37;;;;;;;28.20;21.73;;;17.00;97.30;;;;;;5070131;28;20531;-84
2021/09/13 01:28:03;;;;;;;24.73;19.52;;;17.00;97.30;;;;;;5062203;28;20033;-85
2021/09/13 01:30:30;;;;;;;21.23;18.40;;;17.00;97.30;;;;;;5056048;28;20021;-86
2021/09/13 01:32:57;;;;;;;22.02;19.60;;;17.00;97.30;;;;;;5072880;28;20107;-85
2021/09/13 01:35:22;;;;;;;22.70;19.20;;;17.00;97.30;;;;;;5069410;28;20106;-85
2021/09/13 01:37:48;;;;;;;21.70;18.50;;;17.00;97.30;;;;;;5070786;28;20036;-85
2021/09/13 01:40:14;;;;;;;22.67;20.02;;;17.00;97.30;;;;;;5070573;28;20024;-86
2021/09/13 01:42:40;;;;;;;21.90;19.58;;;17.00;97.20;;;;;;5049886;28;20025;-86
2021/09/13 01:45:06;;;;;;;22.08;18.92;;;17.00;97.20;;;;;;5070056;28;20028;-87
2021/09/13 01:47:33;;;;;;;20.50;18.40;;;16.90;97.30;;;;;;5065362;28;20040;-86
2021/09/13 01:49:59;;;;;;;21.60;18.20;;;16.90;97.30;;;;;;5061991;28;20024;-86
2021/09/13 01:52:24;;;;;;;20.75;18.58;;;16.80;97.30;;;;;;5061558;28;20021;-85
2021/09/13 01:54:50;;;;;;;25.08;20.85;;;16.80;97.40;;;;;;5040301;28;20074;-85
2021/09/13 01:57:16;;;;;;;23.10;20.63;;;16.70;97.60;;;;;;5062913;28;20035;-85
2021/09/13 01:59:42;;;;;;;23.52;19.80;;;16.70;97.70;;;;;;5065009;28;20050;-85
2021/09/13 02:02:08;;;;;;;22.38;18.58;;;16.60;97.80;;;;;;5057325;28;20513;-84
2021/09/13 02:04:33;;;;;;;23.15;19.58;;;16.70;98.00;;;;;;5062389;28;20032;-85
2021/09/13 02:06:59;;;;;;;23.30;19.13;;;16.60;98.00;;;;;;5075330;28;20040;-86
2021/09/13 02:09:25;;;;;;;26.02;20.50;;;16.60;98.00;;;;;;5071676;28;20067;-85
2021/09/13 02:11:51;;;;;;;22.05;19.33;;;16.60;98.00;;;;;;5071880;28;20024;-84
2021/09/13 02:14:16;;;;;;;28.83;19.95;;;16.60;98.00;;;;;;5074470;28;20024;-85
2021/09/13 02:16:42;;;;;;;24.73;19.88;;;16.60;98.00;;;;;;5069952;28;20027;-84
2021/09/13 02:19:08;;;;;;;21.40;18.85;;;16.60;98.10;;;;;;5072198;28;20400;-85
2021/09/13 02:21:34;;;;;;;22.70;20.35;;;16.60;98.20;;;;;;5070821;28;20149;-86
2021/09/13 02:24:00;;;;;;;24.83;21.02;;;16.60;98.20;;;;;;5071614;28;20478;-86
2021/09/13 02:26:26;;;;;;;22.77;20.00;;;16.50;98.20;;;;;;5070374;28;20488;-84
2021/09/13 02:28:52;;;;;;;25.45;19.92;;;16.50;98.30;;;;;;5070607;28;20059;-85
2021/09/13 02:31:18;;;;;;;22.95;20.52;;;16.50;98.30;;;;;;5072423;28;20066;-85
2021/09/13 02:33:43;;;;;;;24.15;21.20;;;16.50;98.40;;;;;;5070977;28;20023;-85
2021/09/13 02:36:09;;;;;;;23.23;19.48;;;16.40;98.50;;;;;;5053710;28;20474;-83
2021/09/13 02:38:35;;;;;;;25.75;21.27;;;16.50;98.60;;;;;;5070752;28;20039;-85
2021/09/13 02:41:01;;;;;;;30.75;22.33;;;16.40;98.60;;;;;;5064133;28;20013;-84
2021/09/13 02:43:26;;;;;;;27.10;21.70;;;16.50;98.50;;;;;;5065399;28;20477;-83
2021/09/13 02:45:52;;;;;;;24.90;22.15;;;16.50;98.60;;;;;;5056129;28;20096;-82
2021/09/13 02:48:18;;;;;;;24.02;21.35;;;16.50;98.70;;;;;;5070128;28;20042;-82
2021/09/13 02:50:44;;;;;;;25.63;19.92;;;16.50;98.70;;;;;;5052474;28;20474;-84
2021/09/13 02:53:10;;;;;;;26.50;22.15;;;16.50;98.60;;;;;;5071341;28;20020;-84
2021/09/13 02:55:36;;;;;;;32.00;23.05;;;16.50;98.60;;;;;;5070361;28;20028;-83
2021/09/13 02:58:02;;;;;;;28.80;21.52;;;16.50;98.60;;;;;;5071858;28;20045;-83
2021/09/13 03:00:27;;;;;;;24.23;20.95;;;16.50;98.70;;;;;;5070107;28;20068;-82
2021/09/13 03:02:53;;;;;;;24.38;21.65;;;16.60;98.70;;;;;;5055830;28;20108;-84
2021/09/13 03:05:19;;;;;;;24.70;20.50;;;16.50;98.60;;;;;;5051913;28;20028;-84
2021/09/13 03:07:45;;;;;;;25.85;21.20;;;16.50;98.80;;;;;;5051818;28;20040;-85
2021/09/13 03:10:12;;;;;;;24.65;20.33;;;16.60;98.50;;;;;;5051838;28;20108;-83
2021/09/13 03:12:37;;;;;;;26.23;20.83;;;16.50;98.50;;;;;;5053304;28;20382;-83
2021/09/13 03:15:05;;;;;;;23.85;21.30;;;16.50;98.50;;;;;;5055544;28;20254;-84
2021/09/13 03:17:32;;;;;;;24.70;22.10;;;16.40;98.60;;;;;;5060452;28;20194;-85
2021/09/13 03:19:57;;;;;;;25.38;21.55;;;16.40;98.60;;;;;;5075739;28;20027;-83
2021/09/13 03:22:23;;;;;;;28.25;21.65;;;16.40;98.70;;;;;;5057817;28;20024;-84
2021/09/13 03:24:49;;;;;;;25.90;20.73;;;16.40;98.70;;;;;;5075604;28;20048;-85
2021/09/13 03:27:15;;;;;;;29.55;21.27;;;16.40;98.70;;;;;;5075340;28;20041;-84
2021/09/13 03:29:41;;;;;;;25.38;20.95;;;16.40;98.70;;;;;;5075580;28;20437;-85
2021/09/13 03:32:07;;;;;;;25.50;21.23;;;16.30;98.70;;;;;;5075754;28;20027;-85
2021/09/13 03:34:32;;;;;;;27.02;22.60;;;16.30;98.70;;;;;;5057807;28;20099;-84
2021/09/13 03:36:59;;;;;;;26.88;21.65;;;16.30;98.80;;;;;;5058424;28;20025;-85
2021/09/13 03:39:26;;;;;;;23.90;21.37;;;16.30;98.80;;;;;;5081654;28;20017;-82
2021/09/13 03:41:52;;;;;;;23.70;21.05;;;16.40;98.80;;;;;;5078224;28;20028;-83
2021/09/13 03:44:18;;;;;;;24.13;21.35;;;16.50;98.70;;;;;;5057538;28;20074;-84
2021/09/13 03:46:44;;;;;;;27.42;22.00;;;16.50;98.90;;;;;;5057895;28;20470;-83
2021/09/13 03:49:09;;;;;;;25.42;21.10;;;16.50;98.60;;;;;;5076098;28;20020;-84
2021/09/13 03:51:35;;;;;;;28.17;22.95;;;16.60;98.50;;;;;;5075813;28;20029;-83
2021/09/13 03:54:01;;;;;;;25.85;22.75;;;16.70;98.50;;;;;;5073590;28;20066;-82
2021/09/13 03:56:28;;;;;;;25.08;19.92;;;16.80;98.30;;;;;;5074992;28;20021;-83
2021/09/13 03:58:57;;;;;;;23.70;20.42;;;16.90;98.00;;;;;;5074998;28;20378;-84
2021/09/13 04:01:23;;;;;;;21.23;18.77;;;16.90;97.80;;;;;;5071603;28;20013;-85
2021/09/13 04:03:50;;;;;;;23.00;20.60;;;16.90;97.70;;;;;;5063667;28;20059;-83
2021/09/13 04:06:37;;;;;;;32.20;21.10;;;16.90;97.60;;;;;;5073943;28;20048;-87
2021/09/13 04:14:19;;;;;;;26.08;19.95;;;17.00;97.30;;;;;;5074857;28;20024;-85
2021/09/13 04:16:45;;;;;;;23.77;20.45;;;17.00;97.30;;;;;;5053455;28;20021;-85
2021/09/13 04:19:11;;;;;;;23.88;18.90;;;17.00;97.20;;;;;;5073513;28;20051;-85
2021/09/13 04:21:38;;;;;;;23.27;19.15;;;17.10;96.90;;;;;;5074826;28;20021;-86
2021/09/13 04:24:04;;;;;;;25.10;20.38;;;17.20;96.60;;;;;;5073689;28;20017;-85
2021/09/13 04:26:30;;;;;;;30.38;19.45;;;17.20;96.30;;;;;;5074072;28;20112;-86
2021/09/13 04:28:56;;;;;;;23.38;18.92;;;17.30;96.10;;;;;;5067420;28;20039;-86
2021/09/13 04:31:21;;;;;;;20.50;18.27;;;17.40;95.90;;;;;;5074075;28;20024;-84
2021/09/13 04:33:47;;;;;;;22.30;19.77;;;17.50;95.70;;;;;;5075049;28;20362;-85
2021/09/13 04:36:13;;;;;;;26.92;18.75;;;17.50;95.50;;;;;;5072988;28;20017;-84
2021/09/13 04:38:39;;;;;;;25.10;18.52;;;17.60;95.20;;;;;;5074002;28;20386;-84
2021/09/13 04:41:05;;;;;;;19.60;17.00;;;17.60;94.80;;;;;;5073249;28;20074;-84
2021/09/13 04:43:30;;;;;;;22.00;18.35;;;17.70;94.70;;;;;;5056424;28;20025;-84
2021/09/13 04:45:56;;;;;;;23.23;18.27;;;17.80;94.50;;;;;;5074049;28;20021;-84
2021/09/13 04:48:23;;;;;;;20.48;18.27;;;17.90;94.30;;;;;;5072190;28;20146;-85
2021/09/13 04:50:52;;;;;;;22.75;18.35;;;18.00;94.00;;;;;;5056348;28;20025;-84
2021/09/13 04:53:21;;;;;;;20.60;17.15;;;18.00;93.70;;;;;;5067116;28;20028;-85
2021/09/13 04:55:47;;;;;;;19.77;15.65;;;18.10;93.50;;;;;;5073989;28;20458;-84
2021/09/13 04:58:13;;;;;;;24.45;18.27;;;18.20;93.20;;;;;;5067218;28;20025;-85
2021/09/13 05:00:40;;;;;;;18.17;16.02;;;18.20;92.90;;;;;;5074114;28;20025;-84
2021/09/13 05:03:06;;;;;;;20.67;16.25;;;18.20;92.50;;;;;;5084348;28;20024;-86
2021/09/13 05:05:32;;;;;;;16.88;14.27;;;18.20;92.10;;;;;;5076136;28;20024;-85
2021/09/13 05:07:57;;;;;;;19.83;15.10;;;18.20;91.80;;;;;;5074204;28;20048;-84
2021/09/13 05:10:23;;;;;;;18.92;15.63;;;18.20;91.60;;;;;;5074014;28;20035;-85
2021/09/13 05:12:50;;;;;;;22.38;16.30;;;18.20;91.50;;;;;;5060255;28;20111;-84
2021/09/13 05:15:15;;;;;;;22.42;15.32;;;18.30;91.30;;;;;;5073600;28;20381;-85
2021/09/13 05:17:42;;;;;;;22.20;16.80;;;18.40;91.20;;;;;;5074047;28;20052;-83
2021/09/13 05:20:08;;;;;;;22.58;16.00;;;18.50;90.90;;;;;;5067648;28;20093;-83
2021/09/13 05:22:34;;;;;;;21.20;15.37;;;18.60;90.70;;;;;;5061347;28;20086;-83
2021/09/13 05:25:00;;;;;;;19.48;14.82;;;18.70;90.80;;;;;;5053752;28;20277;-87
2021/09/13 05:27:26;;;;;;;22.75;17.30;;;18.80;90.40;;;;;;5041537;28;20037;-88
2021/09/13 05:29:52;;;;;;;20.05;15.85;;;18.90;90.10;;;;;;5076727;28;20021;-85
2021/09/13 05:32:18;;;;;;;23.65;15.88;;;19.10;89.10;;;;;;5060635;28;20120;-86
2021/09/13 05:34:44;;;;;;;23.48;16.48;;;19.20;88.20;;;;;;5074743;28;20051;-87
2021/09/13 05:37:09;;;;;;;17.85;15.00;;;19.20;87.50;;;;;;5068342;28;20035;-86
2021/09/13 05:39:35;;;;;;;17.83;13.90;;;19.20;87.10;;;;;;5072182;28;20016;-86
2021/09/13 05:42:01;;;;;;;21.33;15.85;;;19.30;86.60;;;;;;5071003;28;20031;-86
2021/09/13 05:44:28;;;;;;;22.40;15.55;;;19.30;86.10;;;;;;5049008;28;20016;-86
2021/09/13 05:46:57;;;;;;;17.27;14.27;;;19.30;85.60;;;;;;5061189;28;20028;-90
2021/09/13 05:49:23;;;;;;;21.02;14.93;;;19.30;85.40;;;;;;5067423;28;20025;-88
2021/09/13 05:51:52;;;;;;;18.73;15.00;;;19.40;85.80;;;;;;5059482;28;20060;-87
2021/09/13 05:54:25;;;;;;;18.60;15.68;;;19.60;84.90;;;;;;5067095;28;20048;-85
2021/09/13 05:56:52;;;;;;;18.73;14.70;;;19.80;84.00;;;;;;5064029;28;20105;-86
2021/09/13 05:59:22;;;;;;;20.45;15.02;;;20.10;83.00;;;;;;5067843;28;20017;-86
2021/09/13 06:01:49;;;;;;;18.08;15.63;;;20.30;82.50;;;;;;5049654;28;20143;-86
2021/09/13 06:04:16;;;;;;;18.95;15.82;;;20.20;80.90;;;;;;5055068;28;20036;-86
2021/09/13 06:06:42;;;;;;;20.55;14.88;;;20.10;81.30;;;;;;5054196;28;20468;-89
2021/09/13 06:09:10;;;;;;;18.10;15.20;;;20.20;81.30;;;;;;5036440;28;20033;-86
2021/09/13 06:11:35;;;;;;;;;;;20.30;80.20;;;;;;5056152;28;20128;-87
2021/09/13 06:14:02;;;;;;;19.77;15.00;;;20.40;81.30;;;;;;5053799;28;19952;-86
2021/09/13 06:16:28;;;;;;;19.77;14.95;;;20.40;79.90;;;;;;5037682;28;20465;-87
2021/09/13 06:18:53;;;;;;;28.17;15.35;;;20.50;79.40;;;;;;5048589;28;20092;-86
2021/09/13 06:21:19;;;;;;;20.83;14.63;;;20.60;78.70;;;;;;5069244;28;20083;-86
2021/09/13 06:23:46;;;;;;;18.70;13.93;;;20.70;77.90;;;;;;5054525;28;20037;-86
2021/09/13 06:26:12;;;;;;;18.60;12.75;;;20.70;77.50;;;;;;5059224;28;20092;-86
2021/09/13 06:28:38;;;;;;;23.38;13.30;;;20.50;77.00;;;;;;5057189;28;20036;-85
2021/09/13 06:31:05;;;;;;;24.88;13.95;;;20.50;78.00;;;;;;5053653;28;20025;-87
2021/09/13 06:33:32;;;;;;;20.35;14.63;;;20.40;77.90;;;;;;5053359;28;20125;-85
2021/09/13 06:36:02;;;;;;;;;;;20.50;78.30;;;;;;5054988;28;20009;-88
2021/09/13 06:38:31;;;;;;;22.10;14.32;;;20.70;79.20;;;;;;5055354;28;19904;-89
2021/09/13 06:40:59;;;;;;;18.77;12.48;;;20.80;77.60;;;;;;5040861;28;20028;-87
2021/09/13 06:43:27;;;;;;;19.23;13.80;;;20.90;76.30;;;;;;5055432;28;20032;-85
2021/09/13 06:46:21;;;;;;;17.77;15.02;;;20.80;76.20;;;;;;5061989;28;20103;-86
2021/09/13 06:48:44;;;;;;;20.23;14.07;;;20.80;76.00;;;;;;5057694;28;20037;-87
2021/09/13 06:51:11;;;;;;;20.13;14.27;;;20.80;75.80;;;;;;5057511;28;20024;-86
2021/09/13 06:53:37;;;;;;;19.90;14.55;;;20.80;76.30;;;;;;5059269;28;20759;-87
2021/09/13 06:56:04;;;;;;;16.90;13.75;;;20.70;76.50;;;;;;5074350;28;20066;-86
2021/09/13 06:58:30;;;;;;;;;;;20.70;76.60;;;;;;5059653;28;20113;-88
2021/09/13 07:00:57;;;;;;;14.23;12.65;;;20.70;77.30;;;;;;5059415;28;19944;-83
2021/09/13 07:03:23;;;;;;;23.67;14.35;;;20.60;77.20;;;;;;5057293;28;20127;-85
2021/09/13 07:05:49;;;;;;;23.27;13.98;;;20.60;76.60;;;;;;5056872;28;20029;-84
2021/09/13 07:08:16;;;;;;;15.25;13.10;;;20.60;77.00;;;;;;5056377;28;20425;-84
2021/09/13 07:10:42;;;;;;;20.70;13.60;;;20.60;75.50;;;;;;5060273;28;20502;-87
2021/09/13 07:13:08;;;;;;;17.38;13.38;;;20.70;75.60;;;;;;5053969;28;20038;-87
2021/09/13 07:15:34;;;;;;;18.52;12.60;;;20.90;74.30;;;;;;5056721;28;20032;-83
2021/09/13 07:18:00;;;;;;;15.80;12.27;;;21.10;73.40;;;;;;5057628;28;20053;-87
2021/09/13 07:20:26;;;;;;;18.88;13.05;;;21.10;72.60;;;;;;5038289;28;20033;-85
2021/09/13 07:22:52;;;;;;;18.23;12.13;;;21.30;72.40;;;;;;5056518;28;20080;-84
2021/09/13 07:25:18;;;;;;;23.35;12.80;;;21.40;71.30;;;;;;5042090;28;20029;-85
2021/09/13 07:27:44;;;;;;;19.13;13.18;;;21.70;71.10;;;;;;5064278;28;20035;-82
2021/09/13 07:30:12;;;;;;;17.98;11.38;;;22.30;69.60;;;;;;5052422;28;20112;-80
2021/09/13 07:32:39;;;;;;;23.75;14.00;;;23.20;67.30;;;;;;5055147;28;20508;-81
2021/09/13 07:35:07;;;;;;;17.00;11.40;;;24.90;63.80;;;;;;5054600;28;20125;-79
2021/09/13 07:37:33;;;;;;;17.08;10.90;;;26.50;57.90;;;;;;5055511;28;20021;-82
2021/09/13 07:39:59;;;;;;;18.67;11.52;;;27.80;55.30;;;;;;5055269;28;20021;-82
2021/09/13 07:42:25;;;;;;;21.33;14.70;;;28.40;52.00;;;;;;5055293;28;20037;-82
2021/09/13 07:44:51;;;;;;;20.67;12.27;;;29.50;50.50;;;;;;5055044;28;20378;-81
2021/09/13 07:47:19;;;;;;;15.05;11.02;;;30.50;47.90;;;;;;5054292;28;20151;-81
2021/09/13 07:49:45;;;;;;;17.08;10.88;;;31.30;45.50;;;;;;5036933;28;20050;-80
2021/09/13 07:52:11;;;;;;;15.88;11.07;;;31.70;44.60;;;;;;5055055;28;20100;-81
2021/09/13 07:54:37;;;;;;;15.47;11.53;;;32.10;43.50;;;;;;5055135;28;20087;-82
2021/09/13 07:57:03;;;;;;;15.23;11.20;;;32.60;42.80;;;;;;5035686;28;20755;-81
2021/09/13 07:59:29;;;;;;;19.63;10.30;;;32.80;42.10;;;;;;5053990;28;20390;-82
2021/09/13 08:01:54;;;;;;;16.30;10.47;;;32.70;42.00;;;;;;5033305;28;20116;-81
2021/09/13 08:04:20;;;;;;;13.63;10.00;;;32.90;42.00;;;;;;5048107;28;20103;-81
2021/09/13 08:06:46;;;;;;;15.03;9.50;;;33.50;42.00;;;;;;5054740;28;20013;-81
2021/09/13 08:09:12;;;;;;;14.93;9.70;;;33.80;40.50;;;;;;5056212;28;20486;-86
2021/09/13 08:11:37;;;;;;;15.47;10.10;;;34.20;39.50;;;;;;5054886;28;20025;-83
2021/09/13 08:14:04;;;;;;;13.50;9.90;;;34.70;39.30;;;;;;5056286;28;20013;-85
2021/09/13 08:16:30;;;;;;;;;;;35.30;39.10;;;;;;5063219;28;20619;-85
2021/09/13 08:18:58;;;;;;;15.77;9.15;;;35.40;40.20;;;;;;5083877;28;19928;-90
2021/09/13 08:21:24;;;;;;;11.75;9.13;;;35.60;37.40;;;;;;5078550;28;20017;-84
2021/09/13 08:23:49;;;;;;;12.60;8.75;;;36.20;36.50;;;;;;5058852;28;20028;-84
2021/09/13 08:26:18;;;;;;;12.88;9.30;;;37.00;35.30;;;;;;5075885;28;20036;-82
2021/09/13 08:28:44;;;;;;;13.63;8.05;;;37.40;35.00;;;;;;5075509;28;20438;-84
2021/09/13 08:31:10;;;;;;;12.52;8.50;;;37.30;34.30;;;;;;5077628;28;20036;-85
2021/09/13 08:33:36;;;;;;;;;;;37.10;34.30;;;;;;5075355;28;20093;-83
2021/09/13 08:36:04;;;;;;;12.90;9.65;;;36.00;36.80;;;;;;5077084;28;20417;-84
2021/09/13 08:38:30;;;;;;;11.45;8.85;;;36.00;35.90;;;;;;5074842;28;20043;-80
2021/09/13 08:40:56;;;;;;;13.48;9.63;;;36.40;35.10;;;;;;5074656;28;20025;-84
2021/09/13 08:43:23;;;;;;;12.93;8.32;;;36.40;35.40;;;;;;5075242;28;20490;-84
2021/09/13 08:45:56;;;;;;;12.00;8.45;;;36.90;34.80;;;;;;5074710;28;20427;-84
2021/09/13 08:53:51;;;;;;;13.40;7.78;;;36.80;34.10;;;;;;5086544;28;20687;-85
2021/09/13 08:56:18;;;;;;;9.35;8.25;;;37.10;34.00;;;;;;5072740;28;20024;-86
2021/09/13 08:58:45;;;;;;;14.48;9.00;;;37.60;34.00;;;;;;5057500;28;20144;-85
2021/09/13 09:01:15;;;;;;;18.08;8.10;;;37.50;33.60;;;;;;5076300;28;20048;-85
2021/09/13 09:03:43;;;;;;;11.73;8.60;;;37.30;34.10;;;;;;5074682;28;20096;-83
2021/09/13 09:06:29;;;;;;;19.60;9.25;;;37.70;33.90;;;;;;5054333;28;20359;-86
2021/09/13 09:09:06;;;;;;;12.02;8.43;;;38.30;34.60;;;;;;5064430;28;20027;-86
2021/09/13 09:12:05;;;;;;;14.88;8.27;;;38.90;33.60;;;;;;5075209;28;20039;-86
2021/09/13 09:14:41;;;;;;;12.07;7.57;;;37.70;33.20;;;;;;5075455;28;20390;-84
2021/09/13 09:17:28;;;;;;;7.47;6.78;;;36.80;33.00;;;;;;5070550;28;20023;-85
2021/09/13 09:20:05;;;;;;;9.40;8.02;;;36.80;33.20;;;;;;5066840;28;20021;-84
2021/09/13 09:22:37;;;;;;;14.07;7.65;;;36.70;33.30;;;;;;5064937;28;20028;-87
2021/09/13 09:25:06;;;;;;;13.88;8.68;;;37.20;33.00;;;;;;5070130;28;20028;-89
2021/09/13 09:27:50;;;;;;;11.90;7.22;;;38.10;32.70;;;;;;5056732;28;20025;-86
2021/09/13 09:30:17;;;;;;;9.52;7.03;;;38.70;31.70;;;;;;5037303;28;20032;-85
2021/09/13 09:32:42;;;;;;;;;;;38.30;30.30;;;;;;5055071;28;20113;-85
2021/09/13 09:35:17;;;;;;;12.20;7.00;;;;;;;;;;5062147;28;20371;-84
2021/09/13 09:37:43;;;;;;;12.20;6.78;;;37.70;32.30;;;;;;5036221;28;20037;-86
2021/09/13 09:40:09;;;;;;;14.38;6.78;;;36.90;31.70;;;;;;5052855;28;20017;-85
2021/09/13 09:42:37;;;;;;;9.35;6.80;;;36.50;32.20;;;;;;5052660;28;20037;-84
2021/09/13 09:45:24;;;;;;;15.00;7.68;;;37.00;31.70;;;;;;5054448;28;20066;-81
2021/09/13 09:48:09;;;;;;;8.88;7.55;;;37.10;32.10;;;;;;5065231;28;20052;-83
2021/09/13 09:50:36;;;;;;;;;;;37.50;31.90;;;;;;5041324;28;20115;-86
2021/09/13 09:53:18;;;;;;;15.07;8.02;;;37.30;32.60;;;;;;5065062;28;19917;-85
2021/09/13 09:55:49;;;;;;;11.55;7.70;;;37.80;31.80;;;;;;5054870;28;20017;-86
2021/09/13 09:58:15;;;;;;;10.75;7.88;;;37.50;31.40;;;;;;5057190;28;20060;-87
2021/09/13 10:00:45;;;;;;;11.15;8.55;;;37.80;31.50;;;;;;5040864;28;20021;-85
2021/09/13 10:03:26;;;;;;;8.85;7.72;;;38.40;31.40;;;;;;5054112;28;20032;-87
2021/09/13 10:05:52;;;;;;;11.80;7.13;;;38.70;30.30;;;;;;5072040;28;20050;-81
2021/09/13 10:08:18;;;;;;;10.32;7.30;;;39.00;30.30;;;;;;5065875;28;20021;-82
2021/09/13 10:10:43;;;;;;;11.35;7.82;;;39.10;29.90;;;;;;5034269;28;20017;-82
2021/09/13 10:13:09;;;;;;;12.05;7.85;;;37.90;30.00;;;;;;5037051;28;20025;-80
2021/09/13 10:15:35;;;;;;;11.10;8.13;;;36.40;31.40;;;;;;5053663;28;20029;-82
2021/09/13 10:18:01;;;;;;;8.93;7.83;;;34.30;32.60;;;;;;5060910;28;20052;-84
2021/09/13 10:20:27;;;;;;;10.52;8.50;;;33.10;34.30;;;;;;5065460;28;20029;-83
2021/09/13 10:22:55;;;;;;;11.45;8.75;;;32.00;35.50;;;;;;5068528;28;20115;-85
2021/09/13 10:25:21;;;;;;;15.25;8.32;;;30.80;37.20;;;;;;5065353;28;20033;-84
2021/09/13 10:27:48;;;;;;;13.95;8.93;;;30.00;38.60;;;;;;5054323;28;20385;-82
2021/09/13 10:30:19;;;;;;;12.57;8.13;;;29.30;39.20;;;;;;5060110;28;20480;-87
2021/09/13 10:32:47;;;;;;;13.73;8.93;;;28.80;40.30;;;;;;5045392;28;20025;-81
2021/09/13 10:35:15;;;;;;;13.00;9.40;;;28.40;41.10;;;;;;5054472;28;20025;-83
2021/09/13 10:37:47;;;;;;;13.70;9.68;;;28.00;41.30;;;;;;5056242;28;20064;-84
2021/09/13 10:40:16;;;;;;;11.60;8.88;;;27.80;42.10;;;;;;5054227;28;20402;-85
2021/09/13 10:42:49;;;;;;;13.27;8.93;;;27.70;41.80;;;;;;5055308;28;20029;-83
2021/09/13 10:45:29;;;;;;;12.20;9.18;;;27.60;42.40;;;;;;5052449;28;20084;-85
2021/09/13 10:47:58;;;;;;;10.55;8.60;;;27.40;42.60;;;;;;5058443;28;20128;-83
2021/09/13 10:50:26;;;;;;;12.45;10.18;;;27.00;42.90;;;;;;5053269;28;20025;-84
2021/09/13 10:52:54;;;;;;;12.43;8.15;;;26.70;43.90;;;;;;5054037;28;20029;-84
2021/09/13 10:55:24;;;;;;;15.85;9.18;;;26.80;43.60;;;;;;5051196;28;20017;-83
2021/09/13 10:58:13;;;;;;;11.27;8.98;;;26.90;43.90;;;;;;5048398;28;20052;-85
2021/09/13 11:03:35;;;;;;;10.48;8.52;;;26.90;44.00;;;;;;5053304;28;20029;-83
2021/09/13 11:08:45;;;;;;;12.88;8.48;;;26.30;44.60;;;;;;5053844;28;20032;-81
2021/09/13 11:11:28;;;;;;;13.55;8.77;;;26.30;44.90;;;;;;5059563;28;20366;-81
2021/09/13 11:13:57;;;;;;;12.48;8.27;;;26.20;45.30;;;;;;5038849;28;20029;-83
2021/09/13 11:16:23;;;;;;;11.48;9.15;;;26.10;45.30;;;;;;5063924;28;20034;-84
2021/09/13 11:18:50;;;;;;;13.75;8.85;;;26.00;45.70;;;;;;5067900;28;20044;-84
2021/09/13 11:21:30;;;;;;;11.25;8.98;;;26.00;45.90;;;;;;5062587;28;20056;-82
2021/09/13 11:24:23;;;;;;;9.50;8.50;;;26.10;46.10;;;;;;5048882;28;20029;-81
2021/09/13 11:26:54;;;;;;;10.27;9.18;;;26.20;46.30;;;;;;5071886;28;20351;-87
2021/09/13 11:29:40;;;;;;;13.65;8.63;;;26.20;46.60;;;;;;5061973;28;20058;-83
2021/09/13 11:32:09;;;;;;;12.88;8.95;;;26.10;46.60;;;;;;5053117;28;20100;-80
2021/09/13 11:34:34;;;;;;;12.48;8.85;;;26.00;46.70;;;;;;5057830;28;20079;-81
2021/09/13 11:37:08;;;;;;;10.65;8.30;;;25.90;47.10;;;;;;5062159;28;20021;-82
2021/09/13 11:39:37;;;;;;;10.75;7.68;;;26.00;47.60;;;;;;5063133;28;20111;-81
2021/09/13 11:42:14;;;;;;;11.20;8.10;;;25.80;47.50;;;;;;5058086;28;20051;-86
2021/09/13 11:44:46;;;;;;;11.20;8.15;;;25.40;47.90;;;;;;5062133;28;20021;-84
2021/09/13 11:47:19;;;;;;;11.43;8.40;;;25.20;48.70;;;;;;5063613;28;20100;-86
2021/09/13 11:49:48;;;;;;;10.25;7.70;;;25.00;49.60;;;;;;5058571;28;20036;-81
2021/09/13 11:52:28;;;;;;;12.68;8.43;;;24.80;49.80;;;;;;5044486;28;20366;-82
2021/09/13 11:55:04;;;;;;;11.57;8.48;;;24.60;50.10;;;;;;5064032;28;20025;-83
2021/09/13 11:57:42;;;;;;;17.77;8.90;;;24.60;50.60;;;;;;5059178;28;20123;-82
2021/09/13 12:00:22;;;;;;;15.32;9.05;;;24.50;50.90;;;;;;5055313;28;20098;-82
2021/09/13 12:03:00;;;;;;;14.38;8.52;;;24.40;51.30;;;;;;5054844;28;20032;-81
2021/09/13 12:05:31;;;;;;;11.68;9.05;;;24.20;52.10;;;;;;5069358;28;20021;-83
2021/09/13 12:07:59;;;;;;;14.15;8.45;;;24.10;52.20;;;;;;5069375;28;20488;-81
2021/09/13 12:10:31;;;;;;;11.90;8.05;;;23.90;52.40;;;;;;5069562;28;20020;-82
2021/09/13 12:13:07;;;;;;;11.55;8.82;;;23.80;52.60;;;;;;5070590;28;20024;-82
2021/09/13 12:15:34;;;;;;;10.48;9.10;;;23.70;53.20;;;;;;5065749;28;20020;-81
2021/09/13 12:18:05;;;;;;;12.30;8.93;;;23.70;53.60;;;;;;5070783;28;20047;-82
2021/09/13 12:20:42;;;;;;;17.38;9.38;;;23.60;53.90;;;;;;5065772;28;20116;-87
2021/09/13 12:23:11;;;;;;;12.43;8.93;;;23.60;54.30;;;;;;5064322;28;20021;-88
2021/09/13 12:25:45;;;;;;;13.35;8.85;;;23.50;54.40;;;;;;5073195;28;20028;-89
2021/09/13 12:28:12;;;;;;;11.77;8.18;;;23.60;54.40;;;;;;5066346;28;20021;-86
2021/09/13 12:30:39;;;;;;;;;;;23.60;54.60;;;;;;5062189;28;20442;-84
2021/09/13 12:33:06;;;;;;;;;;;23.50;54.20;;;;;;5061924;28;19915;-84
2021/09/13 12:35:40;;;;;;;;;;;23.40;54.30;;;;;;5057729;28;20392;-84
2021/09/13 12:38:21;;;;;;;12.60;8.93;;;23.40;54.50;;;;;;5064207;28;20417;-85
2021/09/13 12:40:51;;;;;;;13.80;10.23;;;23.40;57.30;;;;;;5051071;28;20013;-85
2021/09/13 12:43:24;;;;;;;14.13;10.15;;;23.10;58.70;;;;;;5056399;28;20089;-85
2021/09/13 12:46:11;;;;;;;15.32;9.23;;;22.60;60.20;;;;;;5054136;28;20017;-85
2021/09/13 12:48:40;;;;;;;12.93;9.73;;;22.20;62.50;;;;;;5056911;28;20032;-85
2021/09/13 12:51:16;;;;;;;10.57;9.50;;;21.90;64.30;;;;;;5058758;28;20393;-85
2021/09/13 12:54:01;;;;;;;14.50;9.88;;;21.70;65.40;;;;;;5072534;28;20025;-83
2021/09/13 12:56:28;;;;;;;16.05;11.48;;;21.50;65.90;;;;;;5061772;28;20441;-85